Time;durP1;ratioP1;P1;durP2;ratioP2;P2;SDS_P1;SDS_P2;PMS_P1;PMS_P2;Temp;Humidity;BMP_temperature;BMP_pressure;BME280_temperature;BME280_humidity;BME280_pressure;Samples;Min_cycle;Max_cycle;Signal;HPM_P1;HPM_P2
2022/12/14 00:00:48;;;;;;;43.38;21.33;;;-4.50;99.90;;;;;;5128788;27;20449;-61
2022/12/14 00:03:15;;;;;;;52.42;22.70;;;-4.50;99.90;;;;;;5118470;27;20042;-61
2022/12/14 00:05:41;;;;;;;45.58;22.63;;;-4.50;99.90;;;;;;5128825;27;20126;-61
2022/12/14 00:08:08;;;;;;;52.97;21.65;;;-4.50;99.90;;;;;;5126604;27;20039;-61
2022/12/14 00:10:35;;;;;;;47.45;23.08;;;-4.50;99.90;;;;;;5112405;27;20066;-61
2022/12/14 00:13:01;;;;;;;50.38;24.38;;;-4.40;99.90;;;;;;5108540;28;20075;-61
2022/12/14 00:15:26;;;;;;;49.05;21.92;;;-4.40;99.90;;;;;;5107994;28;20075;-61
2022/12/14 00:17:52;;;;;;;42.70;21.55;;;-4.50;99.90;;;;;;5108482;28;20039;-61
2022/12/14 00:20:19;;;;;;;41.67;20.45;;;-4.40;99.90;;;;;;5108362;28;20088;-61
2022/12/14 00:22:44;;;;;;;49.58;22.13;;;-4.40;99.90;;;;;;5117215;27;20040;-61
2022/12/14 00:25:10;;;;;;;42.20;20.33;;;-4.40;99.90;;;;;;5089297;28;20044;-61
2022/12/14 00:27:45;;;;;;;45.67;22.23;;;-4.40;99.90;;;;;;5089325;28;20045;-61
2022/12/14 00:30:12;;;;;;;46.03;21.48;;;-4.50;99.90;;;;;;5089486;28;20044;-61
2022/12/14 00:32:39;;;;;;;52.67;22.00;;;-4.50;99.90;;;;;;5088928;28;20056;-61
2022/12/14 00:35:07;;;;;;;50.33;22.20;;;-4.50;99.90;;;;;;5108105;28;20054;-61
2022/12/14 00:37:33;;;;;;;48.25;22.08;;;-4.50;99.90;;;;;;5107496;28;20417;-61
2022/12/14 00:40:00;;;;;;;43.35;20.77;;;-4.50;99.90;;;;;;5106686;28;20114;-61
2022/12/14 00:42:26;;;;;;;46.83;21.02;;;-4.50;99.90;;;;;;5108252;28;20050;-61
2022/12/14 00:44:52;;;;;;;45.58;21.48;;;-4.60;99.90;;;;;;5109440;27;20130;-61
2022/12/14 00:47:19;;;;;;;43.25;20.58;;;-4.60;99.90;;;;;;5093437;28;20042;-61
2022/12/14 00:49:44;;;;;;;50.75;22.20;;;-4.70;99.90;;;;;;5107243;28;20083;-61
2022/12/14 00:52:10;;;;;;;41.90;20.67;;;-4.80;99.90;;;;;;5107889;28;20120;-61
2022/12/14 00:54:37;;;;;;;40.30;18.55;;;-4.90;99.90;;;;;;5089262;28;20052;-61
2022/12/14 00:57:03;;;;;;;37.15;18.50;;;-4.90;99.90;;;;;;5107431;28;20039;-61
2022/12/14 00:59:29;;;;;;;37.90;19.27;;;-5.10;99.90;;;;;;5108353;28;20068;-61
2022/12/14 01:01:54;;;;;;;48.13;20.58;;;-5.10;99.90;;;;;;5106023;27;20051;-61
2022/12/14 01:04:21;;;;;;;38.95;19.23;;;-5.20;99.90;;;;;;5107575;28;20039;-61
2022/12/14 01:06:52;;;;;;;43.42;21.17;;;-5.20;99.90;;;;;;5112803;27;20486;-61
2022/12/14 01:09:19;;;;;;;43.30;19.67;;;-5.30;99.90;;;;;;5119740;27;20496;-61
2022/12/14 01:11:46;;;;;;;39.40;20.10;;;-5.40;99.90;;;;;;5112759;27;20051;-61
2022/12/14 01:14:15;;;;;;;37.65;19.73;;;-5.40;99.90;;;;;;5107021;28;20354;-61
2022/12/14 01:16:41;;;;;;;41.58;19.20;;;-5.40;99.90;;;;;;5107348;28;20089;-61
2022/12/14 01:19:07;;;;;;;45.22;21.45;;;-5.40;99.90;;;;;;5106798;28;20043;-61
2022/12/14 01:21:33;;;;;;;40.28;20.48;;;-5.40;99.90;;;;;;5117305;27;20512;-61
2022/12/14 01:24:01;;;;;;;44.97;20.65;;;-5.40;99.90;;;;;;5106280;28;20047;-61
2022/12/14 01:26:29;;;;;;;39.58;19.48;;;-5.30;99.90;;;;;;5088557;28;20096;-61
2022/12/14 01:28:57;;;;;;;43.60;19.98;;;-5.30;99.90;;;;;;5088460;28;20109;-61
2022/12/14 01:31:32;;;;;;;43.92;20.00;;;-5.20;99.90;;;;;;5106947;28;20039;-61
2022/12/14 01:33:57;;;;;;;41.60;20.38;;;-5.20;99.90;;;;;;5108066;27;20035;-61
2022/12/14 01:36:26;;;;;;;43.60;20.67;;;-5.20;99.90;;;;;;5120602;27;20039;-61
2022/12/14 01:38:58;;;;;;;43.35;20.23;;;-5.20;99.90;;;;;;5120245;27;20061;-61
2022/12/14 01:41:33;;;;;;;45.10;20.45;;;-5.20;99.90;;;;;;5106042;28;20104;-61
2022/12/14 01:44:07;;;;;;;48.88;21.23;;;-5.20;99.90;;;;;;5106924;28;20505;-60
2022/12/14 01:46:38;;;;;;;39.28;19.15;;;-5.20;99.90;;;;;;5114372;27;20083;-61
2022/12/14 01:49:13;;;;;;;40.88;18.80;;;-5.20;99.90;;;;;;5106750;28;20039;-61
2022/12/14 01:51:42;;;;;;;42.03;17.90;;;-5.30;99.90;;;;;;5106560;28;20040;-61
2022/12/14 01:54:11;;;;;;;42.08;21.15;;;-5.30;99.90;;;;;;5088152;28;20441;-61
2022/12/14 01:56:40;;;;;;;44.95;21.08;;;-5.30;99.90;;;;;;5112879;27;20489;-61
2022/12/14 01:59:12;;;;;;;46.00;21.50;;;-5.30;99.90;;;;;;5121316;27;20432;-61
2022/12/14 02:01:38;;;;;;;43.03;20.98;;;-5.30;99.90;;;;;;5115212;27;20043;-61
2022/12/14 02:04:05;;;;;;;45.90;20.92;;;-5.40;99.90;;;;;;5120274;27;20124;-61
2022/12/14 02:06:35;;;;;;;40.30;18.65;;;-5.30;99.90;;;;;;5108486;28;20039;-61
2022/12/14 02:09:05;;;;;;;45.28;20.98;;;-5.30;99.90;;;;;;5106477;28;20047;-61
2022/12/14 02:11:48;;;;;;;43.35;20.60;;;-5.40;99.90;;;;;;5105780;28;20046;-61
2022/12/14 02:14:14;;;;;;;40.35;19.83;;;-5.50;99.90;;;;;;5106524;28;20755;-60
2022/12/14 02:16:42;;;;;;;42.65;19.92;;;-5.50;99.90;;;;;;5071285;28;20054;-60
2022/12/14 02:19:07;;;;;;;42.78;19.05;;;-5.60;99.90;;;;;;5106580;28;20097;-61
2022/12/14 02:21:42;;;;;;;48.53;20.42;;;-5.60;99.90;;;;;;5106143;28;20036;-61
2022/12/14 02:24:46;;;;;;;43.55;20.13;;;-5.60;99.90;;;;;;5105594;28;20043;-61
2022/12/14 02:27:33;;;;;;;38.70;18.60;;;-5.70;99.90;;;;;;5106274;28;20051;-61
2022/12/14 02:30:05;;;;;;;38.05;17.83;;;-5.70;99.90;;;;;;5107013;28;20500;-61
2022/12/14 02:32:53;;;;;;;47.75;19.67;;;-5.70;99.90;;;;;;5120124;28;20050;-61
2022/12/14 02:35:37;;;;;;;42.75;20.15;;;-5.60;99.90;;;;;;5126359;28;20225;-61
2022/12/14 02:38:37;;;;;;;40.08;20.00;;;-5.70;99.90;;;;;;5090474;28;20058;-61
2022/12/14 02:41:24;;;;;;;43.22;19.30;;;-5.70;99.90;;;;;;5113507;28;20054;-61
2022/12/14 02:44:18;;;;;;;44.58;19.48;;;-5.80;99.90;;;;;;5107475;28;20050;-61
2022/12/14 02:47:07;;;;;;;44.97;18.67;;;-5.80;99.90;;;;;;5105702;28;20109;-61
2022/12/14 02:49:58;;;;;;;44.03;18.75;;;-5.80;99.90;;;;;;5106217;28;20052;-61
2022/12/14 02:52:43;;;;;;;39.83;19.48;;;-5.90;99.90;;;;;;5106251;28;20085;-61
2022/12/14 02:55:21;;;;;;;39.17;19.88;;;-6.00;99.90;;;;;;5105599;28;20039;-61
2022/12/14 02:57:58;;;;;;;45.58;22.17;;;-6.00;99.90;;;;;;5106782;28;20419;-61
2022/12/14 03:00:28;;;;;;;37.90;19.75;;;-6.00;99.90;;;;;;5105407;28;20160;-61
2022/12/14 03:02:54;;;;;;;46.90;21.75;;;-6.10;99.90;;;;;;5106991;28;20043;-61
2022/12/14 03:05:21;;;;;;;38.85;19.30;;;-6.00;99.90;;;;;;5074410;28;20094;-61
2022/12/14 03:07:54;;;;;;;38.95;20.05;;;-6.10;99.90;;;;;;5073879;28;20044;-61
2022/12/14 03:10:34;;;;;;;45.33;21.10;;;-6.10;99.90;;;;;;5091540;28;20404;-61
2022/12/14 03:13:23;;;;;;;47.08;20.50;;;-6.10;99.90;;;;;;5091141;28;20101;-61
2022/12/14 03:16:03;;;;;;;46.42;20.17;;;-6.10;99.90;;;;;;5091265;28;20051;-61
2022/12/14 03:18:51;;;;;;;39.17;18.92;;;-6.10;99.90;;;;;;5109598;28;20392;-61
2022/12/14 03:21:21;;;;;;;46.17;19.15;;;-6.20;99.90;;;;;;5113529;27;20185;-61
2022/12/14 03:23:49;;;;;;;41.20;18.73;;;-6.20;99.90;;;;;;5118957;27;20052;-61
2022/12/14 03:26:28;;;;;;;48.13;19.17;;;-6.30;99.90;;;;;;5106030;28;20195;-61
2022/12/14 03:29:01;;;;;;;39.05;18.02;;;-6.40;99.90;;;;;;5109624;28;20094;-61
2022/12/14 03:31:40;;;;;;;37.60;18.80;;;-6.50;99.90;;;;;;5109511;27;20100;-61
2022/12/14 03:34:11;;;;;;;36.92;17.70;;;-6.60;99.90;;;;;;5108832;28;20055;-60
2022/12/14 03:36:42;;;;;;;36.40;17.42;;;-6.60;99.90;;;;;;5112946;27;20043;-61
2022/12/14 03:39:13;;;;;;;39.10;18.80;;;-6.70;99.90;;;;;;5129060;27;20045;-61
2022/12/14 03:41:47;;;;;;;39.60;19.27;;;-6.70;99.90;;;;;;5110069;27;20047;-60
2022/12/14 03:44:32;;;;;;;40.00;18.17;;;-6.70;99.90;;;;;;5114744;27;20035;-60
2022/12/14 03:47:20;;;;;;;43.78;19.00;;;-6.70;99.90;;;;;;5124821;27;20157;-61
2022/12/14 03:50:12;;;;;;;41.60;19.40;;;-6.80;99.90;;;;;;5109507;27;20040;-61
2022/12/14 03:52:54;;;;;;;42.47;19.13;;;-6.70;99.90;;;;;;5109893;27;20054;-61
2022/12/14 03:55:45;;;;;;;39.08;19.83;;;-6.70;99.90;;;;;;5123230;27;20051;-60
2022/12/14 03:58:48;;;;;;;45.10;19.70;;;-6.70;99.90;;;;;;5109249;28;20039;-61
2022/12/14 04:01:23;;;;;;;40.22;18.02;;;-6.70;99.90;;;;;;5109271;27;20056;-60
2022/12/14 04:04:08;;;;;;;46.03;18.48;;;-6.50;99.90;;;;;;5108145;28;20050;-60
2022/12/14 04:06:53;;;;;;;43.63;19.77;;;-6.30;99.90;;;;;;5108774;28;20047;-61
2022/12/14 04:09:27;;;;;;;41.15;18.77;;;-6.20;99.90;;;;;;5108062;28;20075;-61
2022/12/14 04:20:49;;;;;;;40.88;19.30;;;-6.10;99.90;;;;;;5108158;28;20043;-61
2022/12/14 04:26:29;;;;;;;43.92;18.65;;;-6.00;99.90;;;;;;5107624;28;20067;-61
2022/12/14 04:31:49;;;;;;;45.17;20.98;;;-5.90;99.90;;;;;;5108634;27;20044;-61
2022/12/14 04:34:19;;;;;;;44.25;18.95;;;-5.90;99.90;;;;;;5109122;27;20086;-61
2022/12/14 04:36:54;;;;;;;47.25;19.02;;;-5.90;99.90;;;;;;5095804;27;20082;-60
2022/12/14 04:39:56;;;;;;;40.47;18.13;;;-5.80;99.90;;;;;;5114082;27;20059;-61
2022/12/14 04:42:29;;;;;;;45.17;19.35;;;-5.80;99.90;;;;;;5107728;28;20058;-60
2022/12/14 04:45:05;;;;;;;36.08;18.05;;;-5.90;99.90;;;;;;5113034;27;20039;-61
2022/12/14 04:47:38;;;;;;;35.15;18.00;;;-5.90;99.90;;;;;;5116481;27;20382;-61
2022/12/14 04:50:22;;;;;;;38.58;18.05;;;-6.00;99.90;;;;;;5108276;28;20039;-61
2022/12/14 04:52:53;;;;;;;45.40;18.52;;;-6.00;99.90;;;;;;5107471;28;20050;-60
2022/12/14 04:55:37;;;;;;;39.05;18.85;;;-6.10;99.90;;;;;;5093410;27;20075;-61
2022/12/14 04:58:32;;;;;;;45.55;19.50;;;-6.10;99.90;;;;;;5128236;27;20047;-61
2022/12/14 05:01:01;;;;;;;40.97;18.13;;;-6.10;99.90;;;;;;5081410;27;20054;-61
2022/12/14 05:03:31;;;;;;;42.30;19.35;;;-6.10;99.90;;;;;;5126152;27;20050;-61
2022/12/14 05:06:25;;;;;;;35.75;17.55;;;-6.10;99.90;;;;;;5090988;28;20058;-60
2022/12/14 05:08:57;;;;;;;38.40;18.30;;;-6.00;99.90;;;;;;5106354;28;20028;-61
2022/12/14 05:11:29;;;;;;;43.85;19.08;;;-6.00;99.90;;;;;;5110209;27;20047;-61
2022/12/14 05:13:54;;;;;;;40.92;17.60;;;-6.00;99.90;;;;;;5108563;27;20093;-61
2022/12/14 05:16:23;;;;;;;37.88;18.23;;;-6.00;99.90;;;;;;5092810;27;20079;-61
2022/12/14 05:18:49;;;;;;;47.13;18.58;;;-5.90;99.90;;;;;;5116460;27;20055;-61
2022/12/14 05:24:02;;;;;;;46.60;19.92;;;-5.90;99.90;;;;;;5107209;28;20553;-61
2022/12/14 05:26:28;;;;;;;37.58;17.95;;;-5.90;99.90;;;;;;5106822;27;20046;-61
2022/12/14 05:28:54;;;;;;;43.75;19.98;;;-5.90;99.90;;;;;;5127449;27;20641;-61
2022/12/14 05:31:21;;;;;;;40.53;19.35;;;-5.90;99.90;;;;;;5094995;27;20400;-61
2022/12/14 05:33:47;;;;;;;38.47;18.42;;;-5.90;99.90;;;;;;5098987;28;20079;-61
2022/12/14 05:36:12;;;;;;;44.25;19.67;;;-6.00;99.90;;;;;;5107026;28;20446;-61
2022/12/14 05:38:38;;;;;;;42.25;19.13;;;-6.00;99.90;;;;;;5085034;28;20055;-61
2022/12/14 05:41:05;;;;;;;41.95;20.58;;;-6.00;99.90;;;;;;5086756;28;20052;-61
2022/12/14 05:43:30;;;;;;;39.00;17.98;;;-6.00;99.90;;;;;;5091943;28;20058;-61
2022/12/14 05:46:01;;;;;;;44.65;17.67;;;-6.00;99.90;;;;;;5106739;28;20565;-61
2022/12/14 05:48:28;;;;;;;50.42;19.42;;;-6.00;99.90;;;;;;5090354;28;20079;-61
2022/12/14 05:50:54;;;;;;;41.53;19.45;;;-6.00;99.90;;;;;;5095461;28;20534;-60
2022/12/14 05:53:20;;;;;;;41.92;18.83;;;-6.00;99.90;;;;;;5102712;28;20055;-61
2022/12/14 05:55:50;;;;;;;43.75;19.30;;;-6.00;99.90;;;;;;5104771;28;20047;-61
2022/12/14 05:58:17;;;;;;;39.40;19.15;;;-6.00;99.90;;;;;;5105062;28;20035;-61
2022/12/14 06:00:43;;;;;;;47.03;19.70;;;-6.00;99.90;;;;;;5102941;28;20043;-61
2022/12/14 06:03:10;;;;;;;44.72;18.83;;;-6.00;99.90;;;;;;5087246;28;20048;-61
2022/12/14 06:05:36;;;;;;;38.90;18.15;;;-6.00;99.90;;;;;;5105578;28;20049;-61
2022/12/14 06:08:01;;;;;;;41.15;18.17;;;-6.10;99.90;;;;;;5095265;28;20479;-61
2022/12/14 06:10:27;;;;;;;39.97;17.60;;;-6.20;99.90;;;;;;5089326;28;20039;-60
2022/12/14 06:12:53;;;;;;;41.78;18.60;;;-6.20;99.90;;;;;;5085803;28;20043;-61
2022/12/14 06:15:18;;;;;;;38.20;18.02;;;-6.20;99.90;;;;;;5085060;28;20188;-61
2022/12/14 06:17:46;;;;;;;45.25;18.70;;;-6.30;99.90;;;;;;5085435;28;20052;-60
2022/12/14 06:20:12;;;;;;;43.58;18.48;;;-6.30;99.90;;;;;;5087215;28;20399;-61
2022/12/14 06:22:39;;;;;;;41.60;19.40;;;-6.30;99.90;;;;;;5083944;28;20112;-61
2022/12/14 06:25:06;;;;;;;45.85;18.05;;;-6.40;99.90;;;;;;5087480;28;20539;-61
2022/12/14 06:27:32;;;;;;;40.45;17.70;;;-6.40;99.90;;;;;;5105624;28;20039;-61
2022/12/14 06:29:58;;;;;;;42.97;18.50;;;-6.50;99.90;;;;;;5098601;28;20425;-61
2022/12/14 06:32:24;;;;;;;46.67;18.67;;;-6.50;99.90;;;;;;5085246;28;20162;-61
2022/12/14 06:34:50;;;;;;;46.25;17.80;;;-6.50;99.90;;;;;;5085243;28;20036;-61
2022/12/14 06:37:16;;;;;;;41.28;18.73;;;-6.60;99.90;;;;;;5086238;28;20055;-61
2022/12/14 06:39:42;;;;;;;41.90;17.65;;;-6.60;99.90;;;;;;5106112;28;20079;-61
2022/12/14 06:42:08;;;;;;;38.63;17.08;;;-6.70;99.90;;;;;;5110194;28;20040;-61
2022/12/14 06:44:34;;;;;;;36.22;16.80;;;-6.80;99.90;;;;;;5090987;28;20046;-61
2022/12/14 06:47:00;;;;;;;43.20;18.05;;;-6.90;99.90;;;;;;5110789;28;20031;-61
2022/12/14 06:49:26;;;;;;;39.80;18.13;;;-6.90;99.90;;;;;;5110018;28;20043;-61
2022/12/14 06:51:51;;;;;;;38.22;16.80;;;-7.00;99.90;;;;;;5110579;27;20036;-61
2022/12/14 06:54:19;;;;;;;36.90;17.45;;;-7.10;99.90;;;;;;5121170;27;20477;-61
2022/12/14 06:56:45;;;;;;;36.22;16.50;;;-7.10;99.90;;;;;;5112004;27;20055;-61
2022/12/14 06:59:12;;;;;;;34.20;15.82;;;-7.20;99.90;;;;;;5109690;28;20501;-61
2022/12/14 07:01:39;;;;;;;41.30;16.67;;;-7.20;99.90;;;;;;5117628;27;20115;-61
2022/12/14 07:04:06;;;;;;;34.88;15.77;;;-7.30;99.90;;;;;;5110974;27;20112;-61
2022/12/14 07:06:35;;;;;;;35.70;16.63;;;-7.20;99.90;;;;;;5091206;28;20047;-61
2022/12/14 07:09:03;;;;;;;38.13;16.55;;;-7.20;99.90;;;;;;5110846;27;20482;-61
2022/12/14 07:11:30;;;;;;;30.08;15.38;;;-7.20;99.90;;;;;;5122031;27;20431;-61
2022/12/14 07:13:59;;;;;;;37.53;16.10;;;-7.20;99.90;;;;;;5124850;27;20160;-61
2022/12/14 07:16:28;;;;;;;35.13;16.17;;;-7.20;99.90;;;;;;5109948;28;20043;-61
2022/12/14 07:18:54;;;;;;;32.35;15.65;;;-7.20;99.90;;;;;;5109154;28;20044;-61
2022/12/14 07:21:21;;;;;;;37.38;16.23;;;-7.20;99.90;;;;;;5122075;27;20035;-60
2022/12/14 07:23:48;;;;;;;39.28;16.88;;;-7.20;99.90;;;;;;5120798;27;20071;-59
2022/12/14 07:26:21;;;;;;;36.67;15.20;;;-7.20;99.90;;;;;;5111263;27;20503;-60
2022/12/14 07:28:46;;;;;;;30.10;15.07;;;-7.20;99.90;;;;;;5109712;28;20055;-60
2022/12/14 07:31:24;;;;;;;37.92;16.63;;;-7.20;99.90;;;;;;5076291;27;20405;-60
2022/12/14 07:33:57;;;;;;;31.38;14.65;;;-7.10;99.90;;;;;;5102393;27;20066;-60
2022/12/14 07:36:25;;;;;;;35.10;15.82;;;-7.10;99.90;;;;;;5107316;27;20040;-60
2022/12/14 07:38:51;;;;;;;36.97;17.13;;;-7.10;99.90;;;;;;5119539;27;20100;-60
2022/12/14 07:41:21;;;;;;;36.08;15.60;;;-7.00;99.90;;;;;;5112961;27;20046;-60
2022/12/14 07:43:47;;;;;;;37.45;16.58;;;-7.00;99.90;;;;;;5090409;28;20071;-60
2022/12/14 07:46:19;;;;;;;35.75;16.40;;;-7.00;99.90;;;;;;5125632;27;20095;-60
2022/12/14 07:48:46;;;;;;;36.58;17.05;;;-6.90;99.90;;;;;;5108478;28;20051;-60
2022/12/14 07:51:15;;;;;;;37.67;15.88;;;-6.90;99.90;;;;;;5090812;28;20043;-60
2022/12/14 07:53:41;;;;;;;40.05;17.73;;;-6.90;99.90;;;;;;5073218;28;20197;-61
2022/12/14 07:56:15;;;;;;;36.38;16.73;;;-6.90;99.90;;;;;;5120682;27;20043;-60
2022/12/14 07:58:41;;;;;;;38.45;15.90;;;-6.90;99.90;;;;;;5124415;27;20122;-60
2022/12/14 08:01:18;;;;;;;39.80;14.63;;;-6.90;99.90;;;;;;5108333;28;20031;-60
2022/12/14 08:03:52;;;;;;;30.35;15.57;;;-6.90;99.90;;;;;;5124460;27;20437;-60
2022/12/14 08:06:19;;;;;;;38.03;15.30;;;-6.80;99.90;;;;;;5111430;27;20296;-60
2022/12/14 08:08:45;;;;;;;32.95;15.48;;;-6.80;99.90;;;;;;5116489;27;20051;-60
2022/12/14 08:11:12;;;;;;;36.42;16.35;;;-6.80;99.90;;;;;;5115461;27;20039;-60
2022/12/14 08:13:38;;;;;;;44.13;18.42;;;-6.90;99.90;;;;;;5100772;27;20126;-60
2022/12/14 08:16:06;;;;;;;44.00;17.50;;;-6.90;99.90;;;;;;5112308;27;20114;-60
2022/12/14 08:18:33;;;;;;;42.63;16.65;;;-6.90;99.90;;;;;;5096980;28;20122;-61
2022/12/14 08:20:59;;;;;;;30.95;15.05;;;-6.80;99.90;;;;;;5106557;27;20050;-60
2022/12/14 08:23:25;;;;;;;40.40;17.40;;;-6.80;99.90;;;;;;5122771;27;20513;-61
2022/12/14 08:25:53;;;;;;;39.50;16.17;;;-6.80;99.90;;;;;;5110277;27;20058;-60
2022/12/14 08:28:18;;;;;;;41.83;16.38;;;-6.70;99.90;;;;;;5115594;27;20134;-60
2022/12/14 08:30:45;;;;;;;43.60;17.63;;;-6.60;99.90;;;;;;5127755;27;20122;-61
2022/12/14 08:33:11;;;;;;;39.10;16.83;;;-6.60;99.90;;;;;;5123820;27;20430;-60
2022/12/14 08:35:36;;;;;;;36.80;15.35;;;-6.50;99.90;;;;;;5121168;27;20048;-60
2022/12/14 08:38:05;;;;;;;42.88;15.80;;;-6.40;99.90;;;;;;5101144;27;20455;-60
2022/12/14 08:40:34;;;;;;;32.53;14.73;;;-6.30;99.90;;;;;;5113805;27;20055;-61
2022/12/14 08:43:00;;;;;;;40.92;16.38;;;-6.20;99.90;;;;;;5095159;27;20048;-60
2022/12/14 08:45:26;;;;;;;40.28;16.50;;;-6.10;99.90;;;;;;5112671;27;20040;-61
2022/12/14 08:47:51;;;;;;;33.20;15.48;;;-6.10;99.90;;;;;;5111251;27;20043;-61
2022/12/14 08:50:17;;;;;;;33.17;15.32;;;-6.00;99.90;;;;;;5126189;27;20081;-61
2022/12/14 08:52:46;;;;;;;36.55;14.98;;;-5.90;99.90;;;;;;5107802;27;20061;-60
2022/12/14 08:55:12;;;;;;;37.15;14.70;;;-5.70;99.90;;;;;;5125306;27;20366;-60
2022/12/14 08:57:38;;;;;;;33.72;14.52;;;-5.60;99.90;;;;;;5122038;27;20047;-60
2022/12/14 09:00:04;;;;;;;34.30;15.23;;;-5.50;99.90;;;;;;5101275;28;20558;-61
2022/12/14 09:02:29;;;;;;;32.25;13.95;;;-5.40;99.90;;;;;;5111398;27;20040;-60
2022/12/14 09:04:55;;;;;;;37.00;14.57;;;-5.30;99.90;;;;;;5109207;27;20144;-60
2022/12/14 09:07:21;;;;;;;38.88;17.38;;;-5.20;99.90;;;;;;5100694;28;20067;-61
2022/12/14 09:09:46;;;;;;;36.90;14.20;;;-5.10;99.90;;;;;;5112912;27;20165;-60
2022/12/14 09:12:12;;;;;;;34.05;14.82;;;-5.00;99.90;;;;;;5110765;27;20047;-60
2022/12/14 09:14:38;;;;;;;30.13;14.50;;;-5.00;99.90;;;;;;5116664;27;20082;-60
2022/12/14 09:17:03;;;;;;;34.95;15.57;;;-4.90;99.90;;;;;;5109428;27;20041;-60
2022/12/14 09:19:29;;;;;;;34.85;15.77;;;-4.80;99.90;;;;;;5112832;27;20100;-61
2022/12/14 09:21:56;;;;;;;31.83;14.80;;;-4.80;99.90;;;;;;5109258;27;20049;-60
2022/12/14 09:24:23;;;;;;;37.70;15.07;;;-4.70;99.90;;;;;;5102266;27;20058;-61
2022/12/14 09:26:50;;;;;;;37.65;13.80;;;-4.70;99.90;;;;;;5127238;27;20043;-60
2022/12/14 09:29:18;;;;;;;36.60;15.48;;;-4.60;99.90;;;;;;5108612;27;20667;-61
2022/12/14 09:31:44;;;;;;;35.35;15.90;;;-4.60;99.90;;;;;;5097728;27;20089;-61
2022/12/14 09:34:09;;;;;;;29.77;14.10;;;-4.50;99.90;;;;;;5093756;27;20075;-61
2022/12/14 09:36:36;;;;;;;34.28;14.32;;;-4.50;99.90;;;;;;5110427;27;20046;-61
2022/12/14 09:39:02;;;;;;;33.30;14.00;;;-4.50;99.90;;;;;;5109690;27;20052;-60
2022/12/14 09:41:34;;;;;;;39.70;16.70;;;-4.50;99.90;;;;;;5092747;27;20507;-61
2022/12/14 09:44:03;;;;;;;41.33;15.40;;;-4.40;99.90;;;;;;5092711;27;20466;-61
2022/12/14 09:46:48;;;;;;;31.88;14.75;;;-4.40;99.90;;;;;;5111628;27;20439;-61
2022/12/14 09:49:28;;;;;;;34.25;14.75;;;-4.30;99.90;;;;;;5109883;27;20128;-60
2022/12/14 09:51:57;;;;;;;35.05;15.43;;;-4.30;99.90;;;;;;5115884;27;20274;-60
2022/12/14 09:54:27;;;;;;;35.70;14.98;;;-4.20;99.90;;;;;;5112131;27;20119;-60
2022/12/14 09:56:56;;;;;;;28.07;11.53;;;-4.20;99.90;;;;;;5101547;27;20485;-60
2022/12/14 09:59:26;;;;;;;29.10;12.45;;;-4.20;99.90;;;;;;5110976;27;20058;-61
2022/12/14 10:01:58;;;;;;;27.73;12.43;;;-4.20;99.90;;;;;;5115017;27;20031;-61
2022/12/14 10:04:35;;;;;;;36.20;13.88;;;-4.20;99.90;;;;;;5108686;27;20044;-61
2022/12/14 10:07:08;;;;;;;31.60;13.25;;;-4.10;99.90;;;;;;5115790;27;20530;-60
2022/12/14 10:09:49;;;;;;;35.17;13.95;;;-4.10;99.90;;;;;;5121311;27;20118;-61
2022/12/14 10:12:50;;;;;;;34.22;15.20;;;-4.10;99.90;;;;;;5093146;28;20508;-61
2022/12/14 10:15:38;;;;;;;36.88;16.27;;;-4.00;99.90;;;;;;5114676;27;20086;-61
2022/12/14 10:18:23;;;;;;;33.97;15.20;;;-4.00;99.90;;;;;;5088311;28;20043;-61
2022/12/14 10:20:59;;;;;;;28.75;13.45;;;-3.90;99.90;;;;;;5120253;28;20175;-61
2022/12/14 10:23:26;;;;;;;32.63;14.23;;;-3.80;99.90;;;;;;5087352;28;20148;-60
2022/12/14 10:26:01;;;;;;;43.15;16.02;;;-3.80;99.90;;;;;;5105927;28;20125;-61
2022/12/14 10:29:03;;;;;;;35.78;14.43;;;-3.70;99.90;;;;;;5086946;28;20413;-61
2022/12/14 10:31:29;;;;;;;33.55;15.15;;;-3.70;99.90;;;;;;5120332;28;20565;-61
2022/12/14 10:34:02;;;;;;;37.85;14.27;;;-3.60;99.90;;;;;;5107641;28;20051;-61
2022/12/14 10:36:43;;;;;;;36.53;15.43;;;-3.60;99.90;;;;;;5121995;28;20470;-61
2022/12/14 10:39:25;;;;;;;34.15;14.63;;;-3.60;99.90;;;;;;5105848;28;20040;-61
2022/12/14 10:42:09;;;;;;;40.33;14.40;;;-3.50;99.90;;;;;;5103474;28;20058;-61
2022/12/14 10:44:56;;;;;;;37.13;15.05;;;-3.50;99.90;;;;;;5093660;28;20056;-61
2022/12/14 10:47:45;;;;;;;40.47;15.98;;;-3.40;99.90;;;;;;5117028;28;20747;-61
2022/12/14 10:50:17;;;;;;;40.10;15.68;;;-3.40;99.90;;;;;;5112252;28;20119;-60
2022/12/14 10:52:45;;;;;;;35.38;16.02;;;-3.30;99.90;;;;;;5114744;28;20058;-61
2022/12/14 10:55:22;;;;;;;38.53;16.02;;;-3.30;99.90;;;;;;5083736;28;20122;-61
2022/12/14 10:57:47;;;;;;;35.72;15.90;;;-3.30;99.90;;;;;;5121959;28;20443;-61
2022/12/14 11:00:16;;;;;;;38.80;17.48;;;-3.30;99.90;;;;;;5125929;28;20039;-61
2022/12/14 11:02:46;;;;;;;49.95;20.35;;;-3.20;99.90;;;;;;5114386;28;20089;-60
2022/12/14 11:05:35;;;;;;;46.85;18.70;;;-3.10;99.90;;;;;;5107456;28;20455;-60
2022/12/14 11:08:02;;;;;;;45.72;17.77;;;-3.10;99.90;;;;;;5117056;28;20100;-61
2022/12/14 11:10:31;;;;;;;38.47;15.15;;;-3.00;99.90;;;;;;5126220;28;20049;-61
2022/12/14 11:13:14;;;;;;;40.05;16.92;;;-3.00;99.90;;;;;;5112118;28;20047;-61
2022/12/14 11:15:42;;;;;;;42.95;18.20;;;-2.90;99.90;;;;;;5104994;28;20047;-61
2022/12/14 11:18:11;;;;;;;36.63;17.73;;;-2.90;99.90;;;;;;5087373;28;20092;-61
2022/12/14 11:20:49;;;;;;;38.08;14.73;;;-2.80;99.90;;;;;;5105160;28;20052;-61
2022/12/14 11:23:28;;;;;;;25.83;12.13;;;-2.70;99.90;;;;;;5108241;28;20493;-61
2022/12/14 11:25:58;;;;;;;30.20;13.77;;;-2.70;99.90;;;;;;5108842;28;20074;-61
2022/12/14 11:28:35;;;;;;;35.75;15.93;;;-2.60;99.90;;;;;;5108631;28;20077;-62
2022/12/14 11:31:33;;;;;;;35.13;15.48;;;-2.60;99.90;;;;;;5077936;27;20694;-62
2022/12/14 11:34:01;;;;;;;32.33;12.65;;;-2.60;99.90;;;;;;5109315;27;20091;-62
2022/12/14 11:36:38;;;;;;;35.38;15.30;;;-2.50;99.90;;;;;;5098991;27;20500;-61
2022/12/14 11:39:17;;;;;;;30.70;12.80;;;-2.50;99.90;;;;;;5118652;27;20149;-63
2022/12/14 11:41:49;;;;;;;30.30;14.05;;;-2.40;99.90;;;;;;5105322;27;20048;-60
2022/12/14 11:44:15;;;;;;;26.80;12.43;;;-2.40;99.90;;;;;;5126065;27;20039;-60
2022/12/14 11:46:59;;;;;;;27.83;13.27;;;-2.40;99.90;;;;;;5113614;27;20437;-60
2022/12/14 11:49:36;;;;;;;29.55;13.85;;;-2.30;99.90;;;;;;5099947;27;20036;-60
2022/12/14 11:52:09;;;;;;;38.40;16.60;;;-2.30;99.90;;;;;;5101311;28;20060;-60
2022/12/14 11:54:41;;;;;;;29.98;14.15;;;-2.20;99.90;;;;;;5112214;27;20399;-60
2022/12/14 11:57:13;;;;;;;32.00;14.45;;;-2.20;99.90;;;;;;5120809;27;20047;-60
2022/12/14 11:59:56;;;;;;;32.00;15.00;;;-2.20;99.90;;;;;;5089671;28;20070;-63
2022/12/14 12:02:38;;;;;;;34.28;13.13;;;-2.10;99.90;;;;;;5110378;27;20039;-60
2022/12/14 12:05:07;;;;;;;33.85;14.98;;;-2.10;99.90;;;;;;5111919;27;20043;-60
2022/12/14 12:07:35;;;;;;;31.17;13.98;;;-2.00;99.90;;;;;;5087859;27;20517;-60
2022/12/14 12:10:12;;;;;;;35.40;15.30;;;-2.00;99.90;;;;;;5112776;27;20166;-60
2022/12/14 12:12:52;;;;;;;33.65;13.43;;;-1.90;99.90;;;;;;5102861;28;20492;-60
2022/12/14 12:15:23;;;;;;;31.35;13.38;;;-1.80;99.90;;;;;;5108422;27;20055;-61
2022/12/14 12:17:54;;;;;;;30.92;14.50;;;-1.70;99.90;;;;;;5106782;27;20066;-61
2022/12/14 12:20:33;;;;;;;31.98;15.60;;;-1.70;99.90;;;;;;5092246;28;20047;-61
2022/12/14 12:23:07;;;;;;;30.52;14.20;;;-1.60;99.90;;;;;;5116726;27;20392;-61
2022/12/14 12:25:34;;;;;;;22.42;11.43;;;-1.60;99.90;;;;;;5111436;27;20499;-61
2022/12/14 12:28:22;;;;;;;22.00;10.82;;;-1.50;99.90;;;;;;5108280;27;20438;-61
2022/12/14 12:30:51;;;;;;;33.58;13.93;;;-1.50;99.90;;;;;;5121004;27;20072;-61
2022/12/14 12:33:35;;;;;;;31.77;15.63;;;-1.40;99.90;;;;;;5092399;27;20035;-61
2022/12/14 12:36:04;;;;;;;28.30;14.80;;;-1.40;99.90;;;;;;5110097;27;20562;-61
2022/12/14 12:38:49;;;;;;;30.33;15.43;;;-1.40;99.90;;;;;;5111225;27;20101;-61
2022/12/14 12:41:25;;;;;;;29.33;12.85;;;-1.30;99.90;;;;;;5094695;27;20039;-61
2022/12/14 12:44:00;;;;;;;31.88;15.27;;;-1.20;99.90;;;;;;5105448;27;20366;-61
2022/12/14 12:46:34;;;;;;;32.10;15.02;;;-1.20;99.90;;;;;;5106813;27;20188;-61
2022/12/14 12:49:10;;;;;;;28.80;11.73;;;-1.10;99.90;;;;;;5096035;27;20035;-61
2022/12/14 12:52:01;;;;;;;41.97;16.83;;;-1.10;99.90;;;;;;5110838;27;20035;-60
2022/12/14 12:54:34;;;;;;;40.67;18.23;;;-1.00;99.90;;;;;;5109330;27;20047;-61
2022/12/14 12:57:02;;;;;;;46.03;19.27;;;-1.00;99.90;;;;;;5109071;27;20418;-61
2022/12/14 12:59:43;;;;;;;45.55;19.30;;;-1.10;99.90;;;;;;5096944;28;20044;-61
2022/12/14 13:02:52;;;;;;;33.10;14.93;;;-0.90;99.90;;;;;;5118890;27;20031;-61
2022/12/14 13:05:21;;;;;;;36.42;15.60;;;-0.90;99.90;;;;;;5020863;28;20124;-61
2022/12/14 13:08:01;;;;;;;37.08;16.08;;;-0.80;99.90;;;;;;5091939;27;20119;-61
2022/12/14 13:10:58;;;;;;;37.22;15.70;;;-0.80;99.90;;;;;;5111480;27;20035;-61